This is the latest recevied weather packets stored in our database for station/object WK7G. If no packets are shown the sender has not sent any weather packets the latest 10 day(s).
| Time | Temp. | Humidity | Pressure | Rain* | Wind** | Luminosity | Snow |
|---|---|---|---|---|---|---|---|
| 1777754971 | 18.33° C | 28% | 1012.5 hPa | 0 mm | - | 583 W/m² | - |
| 1777754667 | 18.33° C | 29% | 1012.9 hPa | 0 mm | - | 768 W/m² | - |
| 1777754366 | 17.78° C | 28% | 1012.7 hPa | 0 mm | - | 789 W/m² | - |
| 1777754063 | 18.33° C | 27% | 1012.7 hPa | 0 mm | - | 758 W/m² | - |
| 1777753758 | 18.33° C | 27% | 1012.8 hPa | 0 mm | - | 784 W/m² | - |
| 1777753456 | 17.78° C | 30% | 1013.3 hPa | 0 mm | - | 816 W/m² | - |
| 1777753154 | 17.22° C | 30% | 1012.9 hPa | 0 mm | - | 337 W/m² | - |
| 1777752849 | 17.78° C | 30% | 1013.1 hPa | 0 mm | - | 659 W/m² | - |
| 1777752546 | 17.22° C | 30% | 1013.1 hPa | 0 mm | - | 727 W/m² | - |
| 1777752241 | 17.22° C | 30% | 1013 hPa | 0 mm | - | 728 W/m² | - |
| 1777751940 | 17.22° C | 27% | 1013.3 hPa | 0 mm | - | 704 W/m² | - |
| 1777751636 | 17.22° C | 29% | 1013 hPa | 0 mm | - | 799 W/m² | - |
| 1777751333 | 16.67° C | 33% | 1013.4 hPa | 0 mm | - | 713 W/m² | - |
| 1777751030 | 17.22° C | 32% | 1013.1 hPa | 0 mm | - | 314 W/m² | - |
| 1777750726 | 17.22° C | 30% | 1013.5 hPa | 0 mm | - | 542 W/m² | - |
| 1777750423 | 17.22° C | 29% | 1013.7 hPa | 0 mm | - | 698 W/m² | - |
| 1777750118 | 17.22° C | 30% | 1013.5 hPa | 0 mm | - | 751 W/m² | - |
| 1777749816 | 17.78° C | 30% | 1013.3 hPa | 0 mm | - | 757 W/m² | - |
| 1777749513 | 17.78° C | 29% | 1013.5 hPa | 0 mm | - | 752 W/m² | - |
| 1777749211 | 17.22° C | 29% | 1013.9 hPa | 0 mm | - | 762 W/m² | - |
| 1777748908 | 17.22° C | 29% | 1013.9 hPa | 0 mm | - | 781 W/m² | - |
| 1777748605 | 17.22° C | 31% | 1013.9 hPa | 0 mm | - | 840 W/m² | - |
| 1777748301 | 17.22° C | 30% | 1013.7 hPa | 0 mm | - | 722 W/m² | - |
| 1777747997 | 16.67° C | 31% | 1013.7 hPa | 0 mm | - | 623 W/m² | - |
| 1777747694 | 16.67° C | 30% | 1014 hPa | 0 mm | - | 711 W/m² | - |
* Rain latest hour (hover to see other rain measurements)
** Current wind speed in m/s (hover to see current wind gust speed)